Crystal Falls, MI

11:17 AM CST on January 29, 2015 (GMT -0600)
APRSWXNET Peavy Falls MI US | Change Station
CLOSE
Current Station
Personal Weather Station
Location: Florence, WI
Elevation: 1258 ft
Nearby Weather Stations
Active Advisory: Special Statement

Elev 1258 ft 46.00 °N, 88.16 °W | Updated 50 minutes ago

Overcast
Overcast
29 °F
Feels Like 29 °F
N
1
Wind Variable Wind from NE
Gusts 10.0 mph

Today
High -- | Low -- °F
--% Chance of Precip.
Yesterday
High -- | Low -- °F
Precip. -- in
7:19 AM 4:53 PM
Waxing Gibbous, 75% visible
Pressure 29.88 in
Visibility 6.0 miles
Clouds Mostly Cloudy 1500 ft
Overcast 2000 ft
Windchill 29 °F
Dew Point 25 °F
Humidity 86%
Rainfall 0.01 in
Snow Depth Not available.
UV 0 out of 12
Pollen .10 out of 12
Air Quality Not available.
Flu Activity Not available.
METAR KIMT 291454Z AUTO 34021G27KT 6SM HZ BKN015 OVC020 M02/M05 A2983 RMK AO2 PK WND 33027/1453 SLP117 I3000 T10171050 53025

More Conditions Fewer Conditions

Pressure 29.88 in
Visibility 6.0 miles
Clouds Mostly Cloudy 1500 ft
Overcast 2000 ft
Windchill 29 °F
Dew Point 25 °F
Humidity 86%
Rainfall 0.01 in
Snow Depth Not available.
UV 0 out of 12
Pollen .10 out of 12
Air Quality Not available.
Flu Activity Not available.
METAR KIMT 291454Z AUTO 34021G27KT 6SM HZ BKN015 OVC020 M02/M05 A2983 RMK AO2 PK WND 33027/1453 SLP117 I3000 T10171050 53025

More Conditions Fewer Conditions

10-Day Weather Forecast

Almanac

Astronomy

Jan. 29, 2015 Rise Set
Actual Time
Civil Twilight
Nautical Twilight
Astronomical Twilight
Moon
Length of Visible Light
Length of Day
Tomorrow will be .
, % of the Moon is Illuminated

Today's Extremes

State Highs State Lows

Community

WunderPhotos

Upload Photos

1,791,480 photos uploaded!

WunderBlogs® & News

Nearby

Air Quality

  Air Quality AQ Index Pollutant
Not available.

Snow Depth

Station Depth Elevation

Earthquake Activity

City Distance Mag. Time & Date
Minimum magnitude displayed is 2.5.

Coastal Water Temperatures

Place Temperature

Nearby Weather Stations